Terminal Aerodrome Forecast
Issued by NWS

Home | Current Version | Previous Version | Text Only | Print | Product List | Glossary On
Versions: 1 2 3 4 5 6 7 8 9 10 11 12 13 14 15 16 17 18 19 20 21 22 23 24 25 26 27 28 29 30
572
FTUS43 KABR 062130 AAB
TAFMBG
TAF AMD
KMBG 062130Z 0622/0718 30027G36KT P6SM OVC018
     FM062300 31023G35KT P6SM BKN025
     FM070100 31021G30KT P6SM BKN035
     FM070300 31019G28KT P6SM BKN035
     FM071500 31020G29KT P6SM BKN015=

USA.gov is the U.S. government's official web portal to all federal, state and local government web resources and services.